Time;durP1;ratioP1;P1;durP2;ratioP2;P2;SDS_P1;SDS_P2;PMS_P1;PMS_P2;Temp;Humidity;BMP_temperature;BMP_pressure;BME280_temperature;BME280_humidity;BME280_pressure;Samples;Min_cycle;Max_cycle;Signal;HPM_P1;HPM_P2
2024/02/05 00:01:17;;;;;;;3.33;1.42;;;8.10;83.50;;;;;;4983917;28;20034;-60
2024/02/05 00:03:43;;;;;;;1.90;1.27;;;8.00;83.30;;;;;;4987056;28;20035;-60
2024/02/05 00:06:10;;;;;;;3.38;1.52;;;8.10;83.40;;;;;;4986833;28;20517;-59
2024/02/05 00:08:36;;;;;;;2.25;1.63;;;8.10;83.30;;;;;;4985261;28;20042;-60
2024/02/05 00:11:01;;;;;;;2.55;1.58;;;8.10;84.00;;;;;;4988880;28;20030;-61
2024/02/05 00:13:27;;;;;;;5.85;2.08;;;8.10;83.10;;;;;;4986296;28;20092;-61
2024/02/05 00:15:52;;;;;;;2.55;1.90;;;8.10;82.80;;;;;;4984240;28;20111;-61
2024/02/05 00:18:19;;;;;;;3.65;1.90;;;8.10;83.60;;;;;;4990109;28;20049;-61
2024/02/05 00:20:44;;;;;;;1.75;1.55;;;8.10;82.60;;;;;;4986671;28;20037;-61
2024/02/05 00:23:10;;;;;;;3.72;2.00;;;8.10;82.60;;;;;;4997244;28;20027;-60
2024/02/05 00:25:37;;;;;;;4.78;2.17;;;8.10;82.40;;;;;;4998373;28;20038;-62
2024/02/05 00:28:03;;;;;;;3.38;1.90;;;8.10;82.10;;;;;;4985735;28;20042;-59
2024/02/05 00:30:29;;;;;;;2.97;1.85;;;8.10;82.10;;;;;;4984130;28;20498;-62
2024/02/05 00:32:54;;;;;;;2.28;1.67;;;8.10;82.10;;;;;;4982334;28;20071;-62
2024/02/05 00:35:20;;;;;;;3.13;1.67;;;8.00;82.00;;;;;;4986696;28;20029;-61
2024/02/05 00:37:45;;;;;;;3.75;1.60;;;8.00;81.90;;;;;;4983356;28;20121;-61
2024/02/05 00:40:12;;;;;;;3.35;1.70;;;8.00;81.90;;;;;;4985881;28;20385;-61
2024/02/05 00:42:38;;;;;;;3.33;1.85;;;8.00;81.80;;;;;;4983034;28;20524;-62
2024/02/05 00:45:04;;;;;;;2.92;1.80;;;8.00;81.70;;;;;;4987933;28;20042;-62
2024/02/05 00:47:30;;;;;;;1.60;1.50;;;8.00;81.50;;;;;;4981362;28;20042;-62
2024/02/05 00:49:56;;;;;;;2.42;1.40;;;7.90;81.50;;;;;;4983272;28;20043;-61
2024/02/05 00:52:22;;;;;;;2.80;1.27;;;7.90;81.60;;;;;;4983630;28;20375;-62
2024/02/05 00:54:47;;;;;;;1.33;1.17;;;7.90;81.90;;;;;;4982126;28;20037;-62
2024/02/05 00:57:13;;;;;;;2.95;1.20;;;7.90;82.20;;;;;;4987148;28;20490;-62
2024/02/05 00:59:39;;;;;;;1.98;1.13;;;7.80;82.40;;;;;;4982103;28;20053;-60
2024/02/05 01:02:06;;;;;;;2.67;1.00;;;7.80;82.60;;;;;;4985331;28;20030;-62
2024/02/05 01:04:32;;;;;;;1.58;0.80;;;7.80;82.80;;;;;;4982742;28;20382;-61
2024/02/05 01:06:58;;;;;;;3.25;0.95;;;7.80;83.00;;;;;;4981701;28;20473;-61
2024/02/05 01:09:25;;;;;;;3.35;1.40;;;7.90;83.10;;;;;;4986888;28;20024;-60
2024/02/05 01:11:51;;;;;;;2.25;0.95;;;7.90;83.10;;;;;;4988274;28;20402;-61
2024/02/05 01:14:17;;;;;;;1.73;1.30;;;7.90;83.20;;;;;;4983425;28;20038;-60
2024/02/05 01:16:42;;;;;;;1.58;0.95;;;7.90;83.10;;;;;;4990305;28;20046;-60
2024/02/05 01:19:08;;;;;;;2.20;0.93;;;7.90;83.10;;;;;;4991281;28;20035;-61
2024/02/05 01:21:34;;;;;;;2.55;1.10;;;8.00;83.10;;;;;;4984924;28;20042;-60
2024/02/05 01:24:00;;;;;;;1.65;1.30;;;8.00;83.10;;;;;;4985682;28;20030;-61
2024/02/05 01:26:25;;;;;;;3.45;1.20;;;8.00;83.10;;;;;;4987808;28;20034;-61
2024/02/05 01:28:51;;;;;;;2.00;1.05;;;8.00;83.00;;;;;;4988551;28;20065;-60
2024/02/05 01:31:17;;;;;;;2.38;1.00;;;8.00;82.90;;;;;;4989815;28;20041;-61
2024/02/05 01:33:42;;;;;;;3.60;1.30;;;8.00;82.90;;;;;;4987273;28;20556;-61
2024/02/05 01:36:09;;;;;;;2.42;0.93;;;8.00;82.80;;;;;;4988585;28;20065;-61
2024/02/05 01:38:34;;;;;;;6.30;1.60;;;8.10;82.70;;;;;;4989250;28;20184;-61
2024/02/05 01:41:00;;;;;;;3.20;1.20;;;8.00;82.70;;;;;;4992668;28;20136;-61
2024/02/05 01:43:25;;;;;;;1.88;1.20;;;8.00;82.60;;;;;;4991098;28;20053;-61
2024/02/05 01:45:51;;;;;;;1.92;1.30;;;8.00;82.60;;;;;;4992042;28;20030;-59
2024/02/05 01:48:22;;;;;;;2.33;1.30;;;8.00;82.60;;;;;;4984430;28;20082;-61
2024/02/05 01:50:49;;;;;;;3.00;1.33;;;8.00;82.40;;;;;;4987692;28;20113;-61
2024/02/05 01:53:15;;;;;;;1.45;1.20;;;8.00;82.40;;;;;;4986322;28;20063;-60
2024/02/05 01:55:43;;;;;;;3.40;1.33;;;8.00;82.30;;;;;;4985549;28;20061;-61
2024/02/05 01:58:11;;;;;;;2.58;1.25;;;8.00;82.20;;;;;;4988774;28;20027;-60
2024/02/05 02:00:37;;;;;;;2.53;1.30;;;8.00;82.20;;;;;;4982028;28;20459;-59
2024/02/05 02:03:03;;;;;;;6.78;1.27;;;8.00;82.20;;;;;;4981000;28;20116;-61
2024/02/05 02:05:29;;;;;;;2.88;1.58;;;7.90;82.20;;;;;;4981412;28;20061;-60
2024/02/05 02:07:54;;;;;;;3.67;1.45;;;7.90;83.10;;;;;;4985678;28;20122;-61
2024/02/05 02:10:21;;;;;;;3.30;1.52;;;7.90;82.30;;;;;;4979926;28;20119;-60
2024/02/05 02:12:47;;;;;;;1.55;1.30;;;7.90;82.40;;;;;;4980785;28;20745;-61
2024/02/05 02:15:13;;;;;;;3.53;1.45;;;7.80;83.20;;;;;;4983046;28;20504;-59
2024/02/05 02:17:43;;;;;;;2.80;1.55;;;7.80;82.40;;;;;;4983699;28;20057;-61
2024/02/05 02:20:10;;;;;;;5.13;1.58;;;7.80;82.50;;;;;;4982915;28;20034;-59
2024/02/05 02:22:57;;;;;;;1.70;1.42;;;7.80;82.50;;;;;;4981189;28;20037;-60
2024/02/05 02:25:23;;;;;;;3.05;1.40;;;7.70;82.60;;;;;;4978173;28;20042;-61
2024/02/05 02:27:49;;;;;;;3.40;1.88;;;7.70;82.50;;;;;;4986371;28;20418;-60
2024/02/05 02:30:17;;;;;;;4.53;1.63;;;7.60;82.60;;;;;;4984968;28;20405;-60
2024/02/05 02:32:58;;;;;;;3.33;1.90;;;7.60;82.60;;;;;;4982627;28;20031;-60
2024/02/05 02:35:35;;;;;;;5.50;1.50;;;7.60;82.70;;;;;;4980423;28;20568;-61
2024/02/05 02:38:10;;;;;;;2.00;1.58;;;7.60;82.70;;;;;;4980994;28;20037;-61
2024/02/05 02:40:39;;;;;;;4.82;2.10;;;7.60;82.70;;;;;;4980115;28;20122;-60
2024/02/05 02:43:07;;;;;;;3.15;1.52;;;7.60;82.60;;;;;;4980451;28;20030;-61
2024/02/05 02:45:33;;;;;;;2.75;1.58;;;7.60;82.60;;;;;;4982329;28;20026;-61
2024/02/05 02:47:59;;;;;;;3.40;1.48;;;7.50;82.40;;;;;;4986750;28;20141;-62
2024/02/05 02:50:26;;;;;;;6.05;2.05;;;7.50;82.20;;;;;;4987494;28;20124;-61
2024/02/05 02:52:52;;;;;;;5.38;1.80;;;7.50;82.30;;;;;;4986431;28;20081;-61
2024/02/05 02:55:17;;;;;;;4.05;1.75;;;7.50;82.40;;;;;;4978925;28;20547;-62
2024/02/05 02:57:43;;;;;;;4.45;1.85;;;7.40;82.50;;;;;;4991770;28;20022;-62
2024/02/05 03:00:09;;;;;;;4.43;2.00;;;7.30;82.70;;;;;;4985166;28;20030;-62
2024/02/05 03:02:35;;;;;;;9.50;2.55;;;7.30;82.80;;;;;;4983072;28;20379;-62
2024/02/05 03:05:05;;;;;;;5.22;3.35;;;7.20;82.90;;;;;;4985309;28;20416;-60
2024/02/05 03:07:34;;;;;;;8.70;3.60;;;7.20;83.00;;;;;;4984389;28;20092;-60
2024/02/05 03:10:01;;;;;;;6.88;3.92;;;7.10;83.00;;;;;;4986722;28;20041;-62
2024/02/05 03:12:26;;;;;;;8.60;3.92;;;7.00;83.20;;;;;;4980753;28;20038;-62
2024/02/05 03:14:52;;;;;;;6.72;3.80;;;6.90;83.50;;;;;;4984285;28;20387;-62
2024/02/05 03:17:17;;;;;;;8.27;4.00;;;6.80;83.70;;;;;;4982123;28;20030;-62
2024/02/05 03:19:43;;;;;;;6.60;4.13;;;6.70;84.10;;;;;;4982272;28;20057;-62
2024/02/05 03:22:09;;;;;;;5.05;3.92;;;6.60;84.30;;;;;;4981563;28;20030;-62
2024/02/05 03:24:35;;;;;;;8.95;4.55;;;6.60;84.60;;;;;;4977521;28;20490;-62
2024/02/05 03:27:00;;;;;;;9.05;4.97;;;6.50;84.70;;;;;;4989273;28;20037;-62
2024/02/05 03:29:26;;;;;;;7.90;4.97;;;6.50;84.90;;;;;;4989713;28;20509;-62
2024/02/05 03:31:51;;;;;;;11.75;5.90;;;6.40;85.20;;;;;;4979755;28;20437;-60
2024/02/05 03:34:17;;;;;;;8.98;5.40;;;6.40;85.50;;;;;;4981054;28;20125;-62
2024/02/05 03:36:42;;;;;;;8.30;5.85;;;6.30;85.60;;;;;;4973692;28;20046;-62
2024/02/05 03:39:09;;;;;;;16.08;7.93;;;6.30;85.60;;;;;;4986185;28;20035;-62
2024/02/05 03:41:35;;;;;;;16.58;10.15;;;6.20;86.00;;;;;;4982080;28;20039;-61
2024/02/05 03:44:00;;;;;;;18.88;12.00;;;6.20;86.00;;;;;;4983656;28;20038;-61
2024/02/05 03:46:26;;;;;;;20.42;12.18;;;6.10;86.20;;;;;;4985031;28;20038;-61
2024/02/05 03:48:53;;;;;;;19.77;11.85;;;6.00;86.50;;;;;;4983846;28;20038;-62
2024/02/05 03:51:19;;;;;;;19.45;12.50;;;6.00;86.80;;;;;;4982103;28;20031;-62
2024/02/05 03:53:44;;;;;;;16.63;11.63;;;6.00;86.80;;;;;;4978385;28;20101;-62
2024/02/05 03:56:12;;;;;;;18.42;12.15;;;6.00;87.00;;;;;;4983597;28;20066;-62
2024/02/05 03:58:38;;;;;;;15.40;10.77;;;6.00;87.00;;;;;;4981086;28;20039;-62
2024/02/05 04:01:04;;;;;;;17.13;11.38;;;6.00;87.10;;;;;;4982690;28;20038;-62
2024/02/05 04:03:29;;;;;;;14.00;9.95;;;6.00;87.20;;;;;;4981441;28;20525;-62
2024/02/05 04:05:56;;;;;;;14.18;9.52;;;6.00;87.20;;;;;;4981638;28;20437;-62
2024/02/05 04:08:22;;;;;;;14.38;9.38;;;6.00;87.20;;;;;;4979326;28;20062;-62
2024/02/05 04:10:47;;;;;;;11.75;8.82;;;6.00;87.20;;;;;;4977703;28;20065;-62
2024/02/05 04:13:13;;;;;;;13.02;8.70;;;6.00;87.10;;;;;;4979963;28;20116;-62
2024/02/05 04:15:38;;;;;;;14.25;8.15;;;6.10;87.10;;;;;;4981010;28;20512;-62
2024/02/05 04:18:04;;;;;;;12.77;8.52;;;6.10;87.00;;;;;;4993270;28;20026;-62
2024/02/05 04:20:29;;;;;;;13.73;8.20;;;6.10;86.80;;;;;;4982300;28;20045;-62
2024/02/05 04:22:55;;;;;;;15.95;8.27;;;6.10;86.60;;;;;;4984818;28;20026;-61
2024/02/05 04:25:21;;;;;;;10.95;8.30;;;6.20;86.60;;;;;;4987814;28;20046;-62
2024/02/05 04:27:48;;;;;;;13.88;8.15;;;6.20;86.60;;;;;;4986095;28;20469;-62
2024/02/05 04:30:13;;;;;;;11.05;7.25;;;6.20;86.50;;;;;;4987045;28;20565;-62
2024/02/05 04:32:39;;;;;;;11.57;7.43;;;6.20;86.20;;;;;;4984116;28;20039;-61
2024/02/05 04:35:05;;;;;;;10.88;7.18;;;6.20;86.20;;;;;;4985597;28;20037;-61
2024/02/05 04:37:31;;;;;;;12.15;7.70;;;6.20;86.20;;;;;;4985231;28;20041;-62
2024/02/05 04:39:56;;;;;;;10.15;7.78;;;6.20;86.20;;;;;;4982534;28;20052;-61
2024/02/05 04:42:22;;;;;;;12.75;7.80;;;6.20;86.20;;;;;;4989316;28;20062;-61
2024/02/05 04:44:47;;;;;;;11.30;7.93;;;6.20;86.20;;;;;;4982160;28;20537;-62
2024/02/05 04:47:13;;;;;;;12.55;6.88;;;6.20;86.20;;;;;;4986079;28;20040;-62
2024/02/05 04:49:42;;;;;;;13.43;7.68;;;6.30;86.10;;;;;;4983196;28;20030;-62
2024/02/05 04:52:07;;;;;;;12.80;6.95;;;6.10;86.00;;;;;;4984227;28;20042;-62
2024/02/05 04:54:34;;;;;;;8.45;6.35;;;6.10;85.90;;;;;;4986642;28;20043;-62
2024/02/05 04:56:59;;;;;;;9.70;5.88;;;6.10;85.90;;;;;;4987544;28;20075;-62
2024/02/05 04:59:25;;;;;;;11.43;6.55;;;6.10;86.00;;;;;;4984051;28;20468;-61
2024/02/05 05:01:50;;;;;;;12.30;6.10;;;6.10;86.10;;;;;;4990017;28;20121;-62
2024/02/05 05:04:16;;;;;;;9.50;6.40;;;6.10;86.00;;;;;;4983526;28;20174;-61
2024/02/05 05:06:43;;;;;;;9.63;5.95;;;6.00;85.90;;;;;;4982405;28;20089;-62
2024/02/05 05:09:11;;;;;;;8.52;5.47;;;6.00;85.80;;;;;;4988924;28;20084;-62
2024/02/05 05:11:37;;;;;;;11.00;5.38;;;6.00;85.80;;;;;;4980547;28;20031;-62
2024/02/05 05:14:03;;;;;;;10.80;5.40;;;6.00;85.60;;;;;;4981992;28;20039;-62
2024/02/05 05:16:30;;;;;;;7.38;5.25;;;6.00;85.60;;;;;;4981163;28;20528;-62
2024/02/05 05:18:58;;;;;;;9.40;5.70;;;6.00;85.70;;;;;;4982928;28;20050;-62
2024/02/05 05:21:24;;;;;;;8.35;5.47;;;6.00;85.80;;;;;;4979571;28;20042;-61
2024/02/05 05:23:50;;;;;;;9.25;5.30;;;6.00;85.70;;;;;;4979547;28;20061;-62
2024/02/05 05:26:15;;;;;;;8.80;4.93;;;6.00;85.70;;;;;;4982155;28;20085;-62
2024/02/05 05:28:43;;;;;;;7.60;4.97;;;5.90;85.60;;;;;;4981085;28;20113;-61
2024/02/05 05:31:11;;;;;;;8.52;4.82;;;5.90;85.70;;;;;;4984056;28;20597;-62
2024/02/05 05:33:36;;;;;;;8.65;5.20;;;5.90;85.70;;;;;;4983432;28;20542;-62
2024/02/05 05:36:03;;;;;;;8.63;4.80;;;5.90;85.70;;;;;;4990818;28;20041;-61
2024/02/05 05:38:30;;;;;;;8.07;5.00;;;5.90;85.80;;;;;;4983278;28;20050;-62
2024/02/05 05:40:55;;;;;;;8.07;5.20;;;5.80;85.80;;;;;;4986784;28;20034;-62
2024/02/05 05:43:21;;;;;;;9.63;5.30;;;5.80;86.70;;;;;;4988588;28;20108;-61
2024/02/05 05:45:47;;;;;;;9.93;5.40;;;5.80;86.80;;;;;;4995722;28;20049;-60
2024/02/05 05:48:12;;;;;;;7.50;4.88;;;5.80;86.00;;;;;;4984597;28;20031;-59
2024/02/05 05:50:38;;;;;;;7.25;4.65;;;5.70;85.90;;;;;;4983335;28;20038;-61
2024/02/05 05:53:04;;;;;;;7.68;5.32;;;5.70;85.90;;;;;;4985976;28;20169;-61
2024/02/05 05:55:29;;;;;;;11.07;5.88;;;5.70;85.90;;;;;;4984190;28;20489;-62
2024/02/05 05:57:55;;;;;;;9.38;5.15;;;5.70;86.00;;;;;;4992374;28;20085;-61
2024/02/05 06:00:22;;;;;;;7.30;5.63;;;5.70;86.00;;;;;;4987109;28;20079;-61
2024/02/05 06:02:48;;;;;;;7.93;5.93;;;5.60;86.10;;;;;;4993240;28;20031;-60
2024/02/05 06:05:14;;;;;;;9.82;5.47;;;5.50;86.30;;;;;;4993625;28;20038;-61
2024/02/05 06:07:40;;;;;;;11.70;5.57;;;5.50;86.60;;;;;;4988834;28;20034;-60
2024/02/05 06:10:06;;;;;;;8.15;5.22;;;5.50;86.80;;;;;;4989286;28;20121;-59
2024/02/05 06:12:32;;;;;;;8.18;5.00;;;5.50;87.00;;;;;;4988855;28;20053;-61
2024/02/05 06:14:57;;;;;;;8.13;5.30;;;5.40;87.10;;;;;;4994386;28;20030;-61
2024/02/05 06:17:23;;;;;;;9.30;5.63;;;5.40;87.40;;;;;;4988746;28;20039;-60
2024/02/05 06:19:48;;;;;;;8.20;5.28;;;5.40;87.50;;;;;;4984506;28;20030;-58
2024/02/05 06:22:14;;;;;;;10.70;5.45;;;5.40;87.70;;;;;;4990245;28;20406;-59
2024/02/05 06:24:40;;;;;;;10.70;5.63;;;5.40;87.80;;;;;;4984566;28;20031;-59
2024/02/05 06:27:07;;;;;;;6.95;5.13;;;5.40;88.00;;;;;;4993242;28;20026;-61
2024/02/05 06:29:32;;;;;;;10.80;5.97;;;5.40;88.20;;;;;;4991006;28;20125;-59
2024/02/05 06:31:58;;;;;;;11.30;5.30;;;5.40;88.30;;;;;;4988434;28;20505;-58
2024/02/05 06:34:23;;;;;;;8.88;5.65;;;5.40;88.30;;;;;;4988501;28;20104;-58
2024/02/05 06:36:50;;;;;;;9.60;5.90;;;5.40;88.40;;;;;;4986441;28;20038;-61
2024/02/05 06:39:15;;;;;;;8.60;5.85;;;5.30;89.20;;;;;;4985783;28;20035;-59
2024/02/05 06:41:41;;;;;;;10.80;5.53;;;5.40;88.20;;;;;;4994276;28;20487;-60
2024/02/05 06:44:06;;;;;;;6.95;5.50;;;5.50;88.20;;;;;;4987031;28;20442;-60
2024/02/05 06:46:32;;;;;;;9.15;6.03;;;5.50;88.20;;;;;;4986198;28;20027;-61
2024/02/05 06:48:58;;;;;;;10.00;5.68;;;5.50;88.30;;;;;;4991453;28;20036;-59
2024/02/05 06:51:24;;;;;;;14.00;5.72;;;5.50;88.40;;;;;;4986855;28;20409;-59
2024/02/05 06:53:49;;;;;;;10.48;6.70;;;5.50;88.40;;;;;;4987265;28;20034;-60
2024/02/05 06:56:15;;;;;;;11.40;6.32;;;5.50;88.40;;;;;;4987374;28;20037;-62
2024/02/05 06:58:41;;;;;;;9.15;6.00;;;5.50;88.60;;;;;;4987377;28;20038;-62
2024/02/05 07:01:07;;;;;;;7.95;5.47;;;5.50;88.70;;;;;;4990547;28;20037;-62
2024/02/05 07:03:32;;;;;;;9.75;5.47;;;5.50;88.60;;;;;;4988076;28;20121;-62
2024/02/05 07:05:59;;;;;;;6.80;4.90;;;5.50;88.70;;;;;;4991712;28;20455;-62
2024/02/05 07:08:24;;;;;;;6.50;4.97;;;5.60;88.80;;;;;;4987912;28;20065;-61
2024/02/05 07:10:50;;;;;;;9.88;5.72;;;5.60;88.90;;;;;;4991427;28;20031;-62
2024/02/05 07:13:16;;;;;;;10.57;5.97;;;5.60;88.70;;;;;;4987605;28;20034;-62
2024/02/05 07:15:41;;;;;;;7.07;5.50;;;5.60;88.80;;;;;;4985669;28;20054;-62
2024/02/05 07:18:07;;;;;;;10.40;6.15;;;5.60;88.70;;;;;;4987115;28;20077;-61
2024/02/05 07:20:32;;;;;;;9.63;5.72;;;5.70;88.60;;;;;;4985586;28;20022;-62
2024/02/05 07:22:58;;;;;;;14.15;6.10;;;5.70;88.60;;;;;;4987305;28;20133;-60
2024/02/05 07:25:25;;;;;;;9.88;5.95;;;5.70;88.50;;;;;;4993197;28;20044;-59
2024/02/05 07:27:50;;;;;;;9.95;6.00;;;5.70;88.40;;;;;;4989616;28;20505;-62
2024/02/05 07:30:16;;;;;;;7.85;6.13;;;5.70;88.40;;;;;;4996242;28;20209;-60
2024/02/05 07:32:42;;;;;;;11.05;6.60;;;5.70;88.40;;;;;;4989061;28;20054;-62
2024/02/05 07:35:08;;;;;;;13.52;6.63;;;5.70;88.40;;;;;;4994928;28;20618;-62
2024/02/05 07:37:33;;;;;;;10.75;6.85;;;5.80;88.40;;;;;;4995819;28;20121;-62
2024/02/05 07:40:03;;;;;;;10.35;6.63;;;5.80;88.40;;;;;;4986351;28;20506;-61
2024/02/05 07:42:28;;;;;;;9.90;6.63;;;5.70;88.30;;;;;;4992846;28;20038;-61
2024/02/05 07:44:54;;;;;;;10.15;6.28;;;5.70;88.30;;;;;;4987443;28;20041;-62
2024/02/05 07:47:19;;;;;;;10.73;6.07;;;5.70;88.40;;;;;;4985447;28;20065;-62
2024/02/05 07:49:45;;;;;;;9.88;6.22;;;5.70;88.50;;;;;;4991964;28;20038;-60
2024/02/05 07:52:11;;;;;;;9.77;6.35;;;5.70;88.60;;;;;;4987993;28;20039;-61
2024/02/05 07:54:37;;;;;;;9.27;6.13;;;5.70;88.70;;;;;;4991079;28;20369;-60
2024/02/05 07:57:04;;;;;;;10.63;6.57;;;5.70;88.90;;;;;;4990579;28;20022;-61
2024/02/05 07:59:30;;;;;;;11.82;6.20;;;5.70;89.10;;;;;;4991202;28;20062;-62
2024/02/05 08:01:55;;;;;;;9.93;5.93;;;5.70;89.20;;;;;;4994872;28;20069;-60
2024/02/05 08:04:21;;;;;;;8.35;5.30;;;5.70;89.30;;;;;;4991151;28;20042;-61
2024/02/05 08:06:47;;;;;;;8.25;5.70;;;5.80;89.30;;;;;;4998916;28;20034;-61
2024/02/05 08:09:12;;;;;;;11.02;5.88;;;5.80;89.40;;;;;;4998316;28;20520;-60
2024/02/05 08:11:39;;;;;;;8.52;5.97;;;5.80;89.40;;;;;;4988924;28;20405;-61
2024/02/05 08:14:06;;;;;;;6.57;5.57;;;5.80;89.40;;;;;;5000073;28;20110;-60
2024/02/05 08:16:34;;;;;;;9.77;5.30;;;5.80;89.50;;;;;;4994668;28;20486;-61
2024/02/05 08:19:00;;;;;;;8.55;5.43;;;5.90;89.40;;;;;;4986280;28;20042;-62
2024/02/05 08:21:26;;;;;;;10.63;5.68;;;5.90;89.40;;;;;;5000349;28;20042;-60
2024/02/05 08:23:52;;;;;;;10.05;5.78;;;5.90;89.50;;;;;;4992796;28;20113;-60
2024/02/05 08:26:18;;;;;;;9.55;5.20;;;5.90;89.60;;;;;;4998968;28;20046;-60
2024/02/05 08:28:44;;;;;;;8.07;4.75;;;6.00;89.70;;;;;;4992076;28;20037;-60
2024/02/05 08:31:10;;;;;;;10.68;5.40;;;6.00;89.60;;;;;;4998229;28;20026;-60
2024/02/05 08:33:35;;;;;;;7.28;4.90;;;6.00;89.50;;;;;;4999106;28;20045;-62
2024/02/05 08:36:01;;;;;;;8.40;5.45;;;6.00;89.60;;;;;;4992079;28;20053;-61
2024/02/05 08:38:27;;;;;;;8.45;5.00;;;6.00;89.60;;;;;;4999152;28;20069;-61
2024/02/05 08:40:53;;;;;;;7.50;5.10;;;6.10;89.70;;;;;;4987217;28;20685;-60
2024/02/05 08:43:18;;;;;;;9.25;5.30;;;6.10;89.90;;;;;;4996355;28;20122;-59
2024/02/05 08:45:44;;;;;;;10.50;4.93;;;6.10;89.80;;;;;;4998611;28;20034;-60
2024/02/05 08:48:09;;;;;;;10.80;5.28;;;6.10;90.00;;;;;;4992869;28;20033;-62
2024/02/05 08:50:36;;;;;;;9.80;4.95;;;6.10;90.00;;;;;;4998465;28;20035;-61
2024/02/05 08:53:05;;;;;;;11.57;4.93;;;6.20;90.00;;;;;;4994830;28;20048;-61
2024/02/05 08:55:30;;;;;;;7.95;4.95;;;6.20;89.80;;;;;;4994094;28;20037;-61
2024/02/05 08:57:56;;;;;;;11.05;4.90;;;6.30;90.00;;;;;;4998891;28;20113;-62
2024/02/05 09:00:22;;;;;;;9.48;4.65;;;6.30;90.00;;;;;;4992179;28;20042;-60
2024/02/05 09:02:50;;;;;;;9.32;5.20;;;6.40;90.00;;;;;;4993713;28;20042;-60
2024/02/05 09:05:19;;;;;;;9.90;5.85;;;6.40;89.90;;;;;;4990744;28;20109;-60
2024/02/05 09:07:44;;;;;;;9.93;5.20;;;6.50;90.00;;;;;;4989998;28;20561;-60
2024/02/05 09:10:10;;;;;;;9.23;5.40;;;6.50;89.80;;;;;;4989205;28;20034;-59
2024/02/05 09:12:36;;;;;;;13.52;6.13;;;6.60;89.80;;;;;;4991362;28;20045;-61
2024/02/05 09:15:02;;;;;;;8.60;5.63;;;6.60;89.60;;;;;;4993736;28;20038;-60
2024/02/05 09:17:28;;;;;;;13.55;5.82;;;6.70;89.30;;;;;;4992386;28;20030;-60
2024/02/05 09:19:54;;;;;;;9.50;5.70;;;6.70;89.20;;;;;;4991475;28;20033;-60
2024/02/05 09:22:19;;;;;;;13.60;5.97;;;6.80;89.10;;;;;;5000602;28;20082;-61
2024/02/05 09:24:45;;;;;;;10.82;5.65;;;6.80;89.00;;;;;;4992323;28;20034;-59
2024/02/05 09:27:11;;;;;;;8.15;5.30;;;6.90;88.80;;;;;;4993673;28;20493;-61
2024/02/05 09:29:37;;;;;;;10.23;5.70;;;6.90;88.60;;;;;;4997902;28;20054;-62
2024/02/05 09:32:05;;;;;;;8.55;5.32;;;6.90;88.50;;;;;;4994841;28;20029;-61
2024/02/05 09:34:31;;;;;;;13.10;5.85;;;7.00;88.50;;;;;;4996624;28;20693;-61
2024/02/05 09:36:57;;;;;;;9.05;5.78;;;7.00;88.50;;;;;;4993170;28;20360;-60
2024/02/05 09:39:22;;;;;;;9.75;5.30;;;7.00;88.40;;;;;;4995264;28;20027;-60
2024/02/05 09:41:50;;;;;;;8.63;5.18;;;7.00;88.20;;;;;;4995398;28;20043;-61
2024/02/05 09:44:16;;;;;;;8.18;5.45;;;7.00;88.20;;;;;;4991241;28;20027;-61
2024/02/05 09:46:48;;;;;;;9.23;5.32;;;7.10;88.10;;;;;;4996741;28;20528;-60
2024/02/05 09:49:14;;;;;;;9.27;5.15;;;7.10;88.00;;;;;;4996650;28;20068;-60
2024/02/05 09:51:40;;;;;;;11.02;4.93;;;7.10;88.00;;;;;;4990529;28;20054;-61
2024/02/05 09:54:07;;;;;;;8.55;4.40;;;7.10;88.10;;;;;;4997671;28;20494;-60
2024/02/05 09:56:35;;;;;;;6.93;4.53;;;7.20;88.20;;;;;;4991596;28;20221;-60
2024/02/05 09:59:01;;;;;;;8.27;4.65;;;7.20;88.10;;;;;;4984439;28;20520;-61
2024/02/05 10:01:28;;;;;;;9.32;4.18;;;7.30;88.10;;;;;;4991186;28;20547;-61
2024/02/05 10:03:54;;;;;;;11.98;4.20;;;7.40;88.10;;;;;;4984332;28;20027;-60
2024/02/05 10:06:23;;;;;;;6.88;3.75;;;7.40;88.10;;;;;;4997160;28;20497;-59
2024/02/05 10:08:58;;;;;;;10.13;4.07;;;7.50;88.10;;;;;;4990758;28;20034;-61
2024/02/05 10:11:26;;;;;;;7.30;4.00;;;7.60;87.80;;;;;;4990093;28;20514;-60
2024/02/05 10:13:52;;;;;;;7.32;3.58;;;7.60;87.60;;;;;;4986901;28;20048;-62
2024/02/05 10:16:18;;;;;;;8.10;3.80;;;7.70;87.50;;;;;;4988489;28;20517;-62
2024/02/05 10:18:43;;;;;;;8.15;4.18;;;7.80;87.40;;;;;;4994611;28;20042;-62
2024/02/05 10:21:09;;;;;;;7.65;3.83;;;7.80;87.50;;;;;;4992322;28;20133;-62
2024/02/05 10:23:35;;;;;;;8.35;4.05;;;7.90;87.30;;;;;;4990141;28;20038;-62
2024/02/05 10:26:05;;;;;;;8.13;3.95;;;8.00;87.30;;;;;;4996547;28;20023;-62
2024/02/05 10:28:31;;;;;;;8.60;3.88;;;8.10;87.10;;;;;;4989904;28;20134;-61
2024/02/05 10:31:14;;;;;;;5.65;3.50;;;8.20;86.90;;;;;;4994127;28;20549;-61
2024/02/05 10:33:40;;;;;;;10.27;3.50;;;8.30;86.50;;;;;;4996654;28;20504;-60
2024/02/05 10:36:06;;;;;;;5.22;3.10;;;8.40;86.60;;;;;;4989845;28;20030;-61
2024/02/05 10:38:36;;;;;;;5.70;3.15;;;8.50;86.40;;;;;;4995050;28;20038;-61
2024/02/05 10:41:02;;;;;;;10.90;3.28;;;8.50;85.90;;;;;;4993560;28;20125;-60
2024/02/05 10:43:27;;;;;;;8.43;3.00;;;8.60;85.70;;;;;;4992632;28;20092;-61
2024/02/05 10:46:00;;;;;;;5.40;2.75;;;8.70;85.50;;;;;;4993904;28;20026;-59
2024/02/05 10:48:25;;;;;;;6.35;2.60;;;8.80;85.30;;;;;;4990275;28;20030;-61
2024/02/05 10:50:52;;;;;;;6.00;2.97;;;8.80;85.30;;;;;;4996110;28;20092;-61
2024/02/05 10:53:18;;;;;;;4.82;2.40;;;8.90;84.90;;;;;;4995969;28;20053;-61
2024/02/05 10:55:45;;;;;;;4.65;2.40;;;9.00;84.60;;;;;;4990229;28;20058;-61
2024/02/05 10:58:14;;;;;;;7.35;2.60;;;9.10;84.60;;;;;;4988293;28;20514;-61
2024/02/05 11:00:41;;;;;;;4.57;2.25;;;9.10;84.10;;;;;;4989930;28;20040;-62
2024/02/05 11:03:09;;;;;;;5.70;2.42;;;9.20;84.10;;;;;;4995482;28;20142;-61
2024/02/05 11:05:37;;;;;;;4.70;2.17;;;9.30;83.10;;;;;;4990814;28;20066;-61
2024/02/05 11:08:09;;;;;;;4.43;2.22;;;9.30;82.70;;;;;;4987272;28;20030;-60
2024/02/05 11:10:43;;;;;;;5.07;2.10;;;9.40;82.30;;;;;;4992767;28;20038;-63
2024/02/05 11:13:13;;;;;;;6.78;2.10;;;9.40;82.90;;;;;;4988106;28;20085;-61
2024/02/05 11:15:40;;;;;;;5.00;1.95;;;9.50;82.80;;;;;;4984387;28;20502;-62
2024/02/05 11:18:50;;;;;;;7.22;1.92;;;9.50;82.80;;;;;;4987669;28;20093;-61
2024/02/05 11:21:20;;;;;;;7.32;1.73;;;9.60;81.50;;;;;;4976414;28;20030;-61
2024/02/05 11:23:47;;;;;;;5.28;1.92;;;9.70;82.20;;;;;;4988735;28;20122;-61
2024/02/05 11:26:13;;;;;;;4.20;1.67;;;9.80;82.30;;;;;;4987483;28;20092;-62
2024/02/05 11:28:39;;;;;;;3.58;1.40;;;9.90;82.10;;;;;;4987601;28;20031;-62
2024/02/05 11:31:07;;;;;;;3.47;1.83;;;9.90;81.70;;;;;;4990528;28;20525;-62
2024/02/05 11:33:40;;;;;;;4.72;1.63;;;10.00;81.40;;;;;;4992477;28;20063;-62
2024/02/05 11:36:13;;;;;;;3.70;1.50;;;10.10;80.80;;;;;;4991447;28;20409;-60
2024/02/05 11:38:42;;;;;;;2.55;1.40;;;10.20;80.60;;;;;;4987858;28;20035;-62
2024/02/05 11:41:08;;;;;;;3.58;1.35;;;10.30;81.00;;;;;;4992146;28;20057;-62
2024/02/05 11:43:34;;;;;;;6.80;1.88;;;10.40;80.90;;;;;;4987895;28;20034;-61
2024/02/05 11:46:02;;;;;;;4.60;1.65;;;10.50;80.60;;;;;;4995266;28;20068;-61
2024/02/05 11:48:31;;;;;;;4.40;1.35;;;10.60;80.00;;;;;;4990533;28;20038;-62
2024/02/05 11:50:59;;;;;;;3.00;1.58;;;10.60;79.80;;;;;;4990199;28;20038;-62
2024/02/05 11:53:25;;;;;;;3.75;1.60;;;10.70;80.70;;;;;;4989773;28;20681;-60
2024/02/05 11:55:51;;;;;;;4.55;1.55;;;10.80;79.50;;;;;;4989822;28;20018;-61
2024/02/05 11:58:16;;;;;;;4.57;1.35;;;10.90;79.40;;;;;;4993854;28;20030;-61
2024/02/05 12:00:42;;;;;;;3.22;1.20;;;11.00;78.80;;;;;;4993217;28;20031;-60
2024/02/05 12:03:08;;;;;;;7.45;1.40;;;11.10;78.70;;;;;;4998856;28;20461;-61
2024/02/05 12:05:35;;;;;;;4.15;1.42;;;11.20;78.40;;;;;;4993940;28;20042;-62
2024/02/05 12:08:01;;;;;;;4.38;1.13;;;11.30;78.50;;;;;;4992898;28;20101;-62
2024/02/05 12:10:27;;;;;;;3.00;1.20;;;11.40;78.30;;;;;;4997385;28;20035;-60
2024/02/05 12:12:54;;;;;;;3.80;1.20;;;11.50;77.80;;;;;;4993688;28;20585;-60
2024/02/05 12:15:22;;;;;;;2.72;0.80;;;11.50;77.20;;;;;;4992178;28;20113;-62
2024/02/05 12:17:48;;;;;;;8.18;1.35;;;11.60;76.70;;;;;;4998239;28;20502;-61
2024/02/05 12:20:21;;;;;;;1.83;0.85;;;11.70;76.50;;;;;;4992533;28;20105;-62
2024/02/05 12:22:48;;;;;;;3.25;1.00;;;11.80;75.80;;;;;;4993621;28;20034;-60
2024/02/05 12:25:17;;;;;;;4.10;1.15;;;11.90;75.60;;;;;;4991145;28;20386;-61
2024/02/05 12:27:43;;;;;;;1.70;0.95;;;11.90;75.00;;;;;;4992033;28;20030;-60
2024/02/05 12:30:10;;;;;;;3.70;1.10;;;12.00;75.60;;;;;;4993424;28;20037;-61
2024/02/05 12:32:36;;;;;;;7.72;1.25;;;12.00;75.30;;;;;;4990510;28;20034;-62
2024/02/05 12:35:02;;;;;;;1.88;0.80;;;12.10;73.90;;;;;;4998497;28;20034;-62
2024/02/05 12:37:29;;;;;;;1.95;0.77;;;12.10;74.20;;;;;;4990282;28;20126;-61
2024/02/05 12:39:55;;;;;;;4.80;0.80;;;12.20;75.00;;;;;;4993229;28;20030;-62
2024/02/05 12:42:25;;;;;;;2.55;0.82;;;12.30;74.30;;;;;;4999000;28;20038;-61
2024/02/05 12:44:51;;;;;;;2.65;1.13;;;12.30;73.70;;;;;;4994358;28;20509;-62
2024/02/05 12:47:18;;;;;;;7.13;1.02;;;12.40;73.20;;;;;;4995770;28;20504;-60
2024/02/05 12:49:44;;;;;;;4.10;1.00;;;12.40;73.30;;;;;;5003966;28;20033;-61